Time;durP1;ratioP1;P1;durP2;ratioP2;P2;SDS_P1;SDS_P2;PMS_P1;PMS_P2;Temp;Humidity;BMP_temperature;BMP_pressure;BME280_temperature;BME280_humidity;BME280_pressure;Samples;Min_cycle;Max_cycle;Signal;HPM_P1;HPM_P2
2023/07/16 00:01:22;;;;;;;8.37;4.50;;;;;;;;;;5094355;28;20266;-66
2023/07/16 00:03:47;;;;;;;10.87;5.20;;;;;;;;;;5094735;28;20282;-66
2023/07/16 00:06:13;;;;;;;9.10;5.17;;;;;;;;;;5099645;28;20280;-66
2023/07/16 00:08:38;;;;;;;11.60;5.60;;;;;;;;;;5101618;28;20353;-66
2023/07/16 00:11:03;;;;;;;13.90;6.03;;;;;;;;;;5107187;28;20020;-66
2023/07/16 00:13:28;;;;;;;6.88;4.88;;;;;;;;;;5094811;28;20281;-65
2023/07/16 00:15:54;;;;;;;10.20;5.10;;;;;;;;;;5091963;28;20032;-65
2023/07/16 00:18:19;;;;;;;8.70;5.90;;;;;;;;;;5105980;28;20297;-65
2023/07/16 00:20:44;;;;;;;11.70;4.65;;;;;;;;;;5094914;28;20270;-65
2023/07/16 00:23:09;;;;;;;7.47;3.80;;;;;;;;;;5093159;28;20150;-65
2023/07/16 00:25:35;;;;;;;12.57;4.30;;;;;;;;;;5092728;28;20062;-65
2023/07/16 00:28:00;;;;;;;8.32;4.63;;;;;;;;;;5077232;28;20066;-66
2023/07/16 00:30:25;;;;;;;9.98;4.20;;;;;;;;;;5093715;28;20034;-65
2023/07/16 00:32:50;;;;;;;13.40;4.47;;;;;;;;;;5092822;28;20382;-65
2023/07/16 00:35:16;;;;;;;6.70;3.30;;;;;;;;;;5106281;28;20357;-65
2023/07/16 00:37:41;;;;;;;7.00;3.65;;;;;;;;;;5092197;28;20297;-65
2023/07/16 00:40:07;;;;;;;5.85;3.25;;;;;;;;;;5102628;28;20393;-65
2023/07/16 00:42:32;;;;;;;10.77;3.83;;;;;;;;;;5107496;28;20431;-65
2023/07/16 00:44:58;;;;;;;8.07;4.13;;;;;;;;;;5095243;28;20031;-65
2023/07/16 00:47:23;;;;;;;8.80;4.27;;;;;;;;;;5106038;28;20020;-65
2023/07/16 00:49:48;;;;;;;9.20;4.10;;;;;;;;;;5106496;28;20369;-65
2023/07/16 00:52:16;;;;;;;10.27;3.92;;;;;;;;;;5103794;28;20476;-65
2023/07/16 00:54:41;;;;;;;20.02;4.13;;;;;;;;;;5110511;28;20034;-65
2023/07/16 00:57:07;;;;;;;8.05;3.92;;;;;;;;;;5111430;28;20024;-65
2023/07/16 00:59:33;;;;;;;9.23;3.90;;;;;;;;;;5110812;28;20031;-65
2023/07/16 01:01:58;;;;;;;7.57;4.05;;;;;;;;;;5104677;28;20016;-65
2023/07/16 01:04:23;;;;;;;12.40;4.30;;;;;;;;;;5104591;28;20031;-65
2023/07/16 01:06:52;;;;;;;6.78;3.75;;;;;;;;;;5092063;28;20312;-66
2023/07/16 01:09:18;;;;;;;7.55;3.58;;;;;;;;;;5087031;28;20024;-65
2023/07/16 01:11:44;;;;;;;9.85;4.45;;;;;;;;;;5106192;28;20023;-65
2023/07/16 01:14:10;;;;;;;6.13;3.67;;;;;;;;;;5093017;28;20081;-65
2023/07/16 01:16:35;;;;;;;11.38;4.47;;;;;;;;;;5097504;28;20054;-65
2023/07/16 01:19:01;;;;;;;5.40;3.05;;;;;;;;;;5099297;28;20028;-65
2023/07/16 01:21:29;;;;;;;7.55;4.10;;;;;;;;;;5110928;28;20047;-66
2023/07/16 01:24:06;;;;;;;6.10;4.65;;;;;;;;;;5110665;28;20402;-66
2023/07/16 01:26:40;;;;;;;6.53;3.95;;;;;;;;;;5095387;28;20032;-66
2023/07/16 01:29:11;;;;;;;7.22;4.40;;;;;;;;;;5097196;28;20020;-66
2023/07/16 01:31:36;;;;;;;8.45;4.22;;;;;;;;;;5093947;28;20020;-66
2023/07/16 01:34:03;;;;;;;6.95;3.85;;;;;;;;;;5097061;28;20028;-65
2023/07/16 01:36:29;;;;;;;10.40;5.18;;;;;;;;;;5093317;28;20020;-65
2023/07/16 01:38:54;;;;;;;11.43;4.72;;;;;;;;;;5106420;28;20057;-65
2023/07/16 01:41:20;;;;;;;12.20;4.15;;;;;;;;;;5093410;28;20050;-66
2023/07/16 01:43:45;;;;;;;11.57;5.47;;;;;;;;;;5095692;28;20031;-66
2023/07/16 01:46:10;;;;;;;12.13;4.67;;;;;;;;;;5110386;28;20031;-65
2023/07/16 01:48:37;;;;;;;7.68;4.28;;;;;;;;;;5104348;28;20828;-66
2023/07/16 01:51:02;;;;;;;8.85;4.55;;;;;;;;;;5092803;28;20031;-65
2023/07/16 01:53:28;;;;;;;9.43;4.53;;;;;;;;;;5092101;28;20016;-65
2023/07/16 01:55:53;;;;;;;7.22;4.32;;;;;;;;;;5091356;28;20098;-65
2023/07/16 01:58:18;;;;;;;12.13;4.28;;;;;;;;;;5091538;28;20085;-65
2023/07/16 02:00:43;;;;;;;13.38;4.63;;;;;;;;;;5091617;28;20032;-65
2023/07/16 02:03:09;;;;;;;11.35;4.55;;;;;;;;;;5092531;28;20470;-66
2023/07/16 02:05:34;;;;;;;17.50;5.30;;;;;;;;;;5093064;28;20085;-65
2023/07/16 02:07:59;;;;;;;16.97;5.30;;;;;;;;;;5092429;28;20026;-66
2023/07/16 02:10:25;;;;;;;9.45;4.18;;;;;;;;;;5092996;28;20385;-66
2023/07/16 02:12:50;;;;;;;10.73;5.28;;;;;;;;;;5109581;28;20964;-65
2023/07/16 02:15:15;;;;;;;7.90;4.50;;;;;;;;;;5100491;28;20470;-65
2023/07/16 02:17:41;;;;;;;10.05;4.25;;;;;;;;;;5109585;28;20030;-65
2023/07/16 02:20:06;;;;;;;8.98;4.32;;;;;;;;;;5101048;28;20032;-65
2023/07/16 02:22:32;;;;;;;8.65;4.05;;;;;;;;;;5096516;28;20028;-66
2023/07/16 02:24:57;;;;;;;11.05;5.25;;;;;;;;;;5092945;28;20047;-65
2023/07/16 02:27:22;;;;;;;9.27;4.70;;;;;;;;;;5097097;28;20358;-65
2023/07/16 02:29:47;;;;;;;8.63;4.43;;;;;;;;;;5095416;28;20034;-65
2023/07/16 02:32:13;;;;;;;13.43;4.68;;;;;;;;;;5097009;28;20787;-65
2023/07/16 02:34:38;;;;;;;10.57;5.07;;;;;;;;;;5094654;28;20024;-65
2023/07/16 02:37:03;;;;;;;9.55;3.92;;;;;;;;;;5090138;28;20020;-66
2023/07/16 02:39:28;;;;;;;9.48;4.07;;;;;;;;;;5091846;28;20405;-65
2023/07/16 02:41:54;;;;;;;9.63;4.40;;;;;;;;;;5091027;28;20051;-65
2023/07/16 02:44:19;;;;;;;7.80;4.28;;;;;;;;;;5103297;28;20265;-65
2023/07/16 02:46:44;;;;;;;6.82;4.32;;;;;;;;;;5104867;28;20032;-64
2023/07/16 02:49:09;;;;;;;9.43;4.10;;;;;;;;;;5103863;28;20382;-64
2023/07/16 02:51:35;;;;;;;8.55;4.35;;;;;;;;;;5104575;28;20278;-64
2023/07/16 02:54:00;;;;;;;6.93;4.00;;;;;;;;;;5102877;28;20066;-64
2023/07/16 02:56:25;;;;;;;10.67;4.00;;;;;;;;;;5097050;28;20030;-64
2023/07/16 02:58:50;;;;;;;10.48;5.18;;;;;;;;;;5097846;28;20385;-64
2023/07/16 03:01:16;;;;;;;12.27;5.13;;;;;;;;;;5090968;28;20439;-65
2023/07/16 03:03:41;;;;;;;7.75;4.82;;;;;;;;;;5110330;28;20585;-65
2023/07/16 03:06:06;;;;;;;13.23;5.05;;;;;;;;;;5096444;28;20027;-65
2023/07/16 03:08:32;;;;;;;17.17;5.40;;;;;;;;;;5110197;28;20035;-65
2023/07/16 03:10:57;;;;;;;11.93;4.47;;;;;;;;;;5109986;28;20064;-63
2023/07/16 03:13:22;;;;;;;10.50;5.38;;;;;;;;;;5109513;28;20027;-65
2023/07/16 03:15:48;;;;;;;16.30;5.07;;;;;;;;;;5108732;28;20023;-64
2023/07/16 03:18:13;;;;;;;9.77;5.20;;;;;;;;;;5109729;28;20123;-64
2023/07/16 03:20:38;;;;;;;9.53;5.47;;;;;;;;;;5109263;28;20055;-64
2023/07/16 03:23:03;;;;;;;12.00;4.57;;;;;;;;;;5109548;28;20269;-65
2023/07/16 03:25:29;;;;;;;14.05;5.22;;;;;;;;;;5112306;28;20031;-64
2023/07/16 03:27:54;;;;;;;10.10;4.80;;;;;;;;;;5113703;28;20024;-65
2023/07/16 03:30:19;;;;;;;10.18;5.60;;;;;;;;;;5113370;28;20012;-65
2023/07/16 03:32:44;;;;;;;10.38;4.47;;;;;;;;;;5112716;28;20466;-65
2023/07/16 03:35:10;;;;;;;13.65;5.10;;;;;;;;;;5100380;28;20034;-64
2023/07/16 03:37:35;;;;;;;10.35;4.70;;;;;;;;;;5099852;28;20034;-64
2023/07/16 03:40:17;;;;;;;13.00;4.90;;;;;;;;;;5102801;28;20123;-64
2023/07/16 03:42:42;;;;;;;9.68;4.90;;;;;;;;;;5092479;28;20364;-64
2023/07/16 03:45:08;;;;;;;16.30;5.20;;;;;;;;;;5111956;28;20031;-64
2023/07/16 03:47:34;;;;;;;18.30;5.38;;;;;;;;;;5101070;28;20411;-64
2023/07/16 03:49:59;;;;;;;6.23;3.87;;;;;;;;;;5094762;28;20095;-64
2023/07/16 03:52:26;;;;;;;9.43;4.13;;;;;;;;;;5094452;28;20881;-64
2023/07/16 03:54:51;;;;;;;14.82;4.93;;;;;;;;;;5095408;28;20296;-64
2023/07/16 03:57:16;;;;;;;10.68;5.25;;;;;;;;;;5094932;28;20478;-65
2023/07/16 03:59:42;;;;;;;7.10;5.07;;;;;;;;;;5100816;28;20067;-65
2023/07/16 04:02:07;;;;;;;11.00;5.38;;;;;;;;;;5102116;28;20024;-65
2023/07/16 04:04:32;;;;;;;13.15;5.65;;;;;;;;;;5108281;28;20090;-65
2023/07/16 04:06:58;;;;;;;8.55;5.07;;;;;;;;;;5109060;28;20034;-65
2023/07/16 04:09:23;;;;;;;18.77;5.78;;;;;;;;;;5104212;28;20398;-65
2023/07/16 04:11:48;;;;;;;10.70;5.22;;;;;;;;;;5113536;28;20032;-65
2023/07/16 04:14:14;;;;;;;8.93;4.35;;;;;;;;;;5107555;28;20031;-66
2023/07/16 04:16:39;;;;;;;15.02;5.15;;;;;;;;;;5107952;28;20028;-66
2023/07/16 04:19:04;;;;;;;12.00;5.13;;;;;;;;;;5108157;28;20080;-66
2023/07/16 04:21:30;;;;;;;10.68;4.53;;;;;;;;;;5112435;28;20272;-66
2023/07/16 04:23:55;;;;;;;10.23;6.00;;;;;;;;;;5112303;28;20024;-65
2023/07/16 04:26:20;;;;;;;13.32;5.18;;;;;;;;;;5102797;28;20032;-65
2023/07/16 04:28:46;;;;;;;16.80;6.20;;;;;;;;;;5098231;28;20556;-65
2023/07/16 04:31:11;;;;;;;18.20;5.65;;;;;;;;;;5100024;28;20708;-65
2023/07/16 04:33:36;;;;;;;9.63;5.85;;;;;;;;;;5097902;28;20035;-65
2023/07/16 04:36:01;;;;;;;8.90;5.30;;;;;;;;;;5094902;28;20035;-66
2023/07/16 04:38:26;;;;;;;12.77;5.28;;;;;;;;;;5105289;28;20462;-65
2023/07/16 04:40:52;;;;;;;14.03;5.37;;;;;;;;;;5112463;28;20027;-66
2023/07/16 04:43:17;;;;;;;10.60;5.93;;;;;;;;;;5096045;28;20702;-65
2023/07/16 04:45:44;;;;;;;15.15;5.55;;;;;;;;;;5102516;28;20735;-66
2023/07/16 04:48:09;;;;;;;11.20;5.03;;;;;;;;;;5110574;28;20024;-66
2023/07/16 04:50:34;;;;;;;21.50;5.97;;;;;;;;;;5110541;28;20072;-64
2023/07/16 04:52:59;;;;;;;8.07;5.03;;;;;;;;;;5106650;28;20035;-64
2023/07/16 04:55:25;;;;;;;11.33;6.17;;;;;;;;;;5110502;28;20273;-63
2023/07/16 04:57:53;;;;;;;8.98;5.18;;;;;;;;;;5110080;28;20274;-64
2023/07/16 05:00:18;;;;;;;11.85;6.38;;;;;;;;;;5102224;28;20502;-63
2023/07/16 05:02:43;;;;;;;15.60;6.13;;;;;;;;;;5096486;28;20020;-65
2023/07/16 05:05:09;;;;;;;13.40;6.83;;;;;;;;;;5111674;28;20455;-64
2023/07/16 05:07:34;;;;;;;12.73;5.70;;;;;;;;;;5107376;28;20288;-65
2023/07/16 05:09:59;;;;;;;9.80;5.63;;;;;;;;;;5102440;28;20319;-64
2023/07/16 05:12:24;;;;;;;13.82;5.53;;;;;;;;;;5106973;28;20327;-65
2023/07/16 05:14:51;;;;;;;17.23;5.43;;;;;;;;;;5101550;28;20020;-66
2023/07/16 05:17:16;;;;;;;11.05;5.40;;;;;;;;;;5099830;28;20020;-66
2023/07/16 05:19:42;;;;;;;13.35;6.50;;;;;;;;;;5101098;28;20116;-65
2023/07/16 05:22:07;;;;;;;14.73;6.85;;;;;;;;;;5100509;28;20028;-65
2023/07/16 05:24:32;;;;;;;11.70;6.88;;;;;;;;;;5101079;28;20019;-65
2023/07/16 05:26:57;;;;;;;10.80;6.53;;;;;;;;;;5100759;28;20389;-65
2023/07/16 05:29:23;;;;;;;10.93;6.03;;;;;;;;;;5099274;28;20477;-64
2023/07/16 05:31:49;;;;;;;12.32;7.20;;;;;;;;;;5102379;28;20056;-64
2023/07/16 05:34:14;;;;;;;14.00;6.05;;;;;;;;;;5106594;28;20031;-65
2023/07/16 05:36:41;;;;;;;10.38;6.55;;;;;;;;;;5096284;28;20024;-65
2023/07/16 05:39:08;;;;;;;14.45;6.85;;;;;;;;;;5109072;28;20027;-65
2023/07/16 05:41:33;;;;;;;16.90;6.82;;;;;;;;;;5101218;28;20365;-64
2023/07/16 05:43:58;;;;;;;12.23;7.03;;;;;;;;;;5095175;28;20034;-66
2023/07/16 05:46:24;;;;;;;14.17;7.40;;;;;;;;;;5104559;28;20036;-65
2023/07/16 05:48:49;;;;;;;11.13;6.72;;;;;;;;;;5102821;28;20278;-65
2023/07/16 05:51:14;;;;;;;15.95;6.80;;;;;;;;;;5111669;28;20051;-66
2023/07/16 05:53:39;;;;;;;16.00;7.43;;;;;;;;;;5092802;28;20039;-65
2023/07/16 05:56:05;;;;;;;13.43;7.57;;;;;;;;;;5094419;28;20773;-65
2023/07/16 05:58:30;;;;;;;15.57;6.68;;;;;;;;;;5093844;28;20028;-66
2023/07/16 06:00:55;;;;;;;14.43;7.20;;;;;;;;;;5095925;28;20051;-65
2023/07/16 06:03:20;;;;;;;15.57;7.87;;;;;;;;;;5111522;28;20474;-66
2023/07/16 06:05:46;;;;;;;13.38;7.90;;;;;;;;;;5107564;28;20677;-66
2023/07/16 06:08:12;;;;;;;10.80;6.93;;;;;;;;;;5109237;28;20031;-64
2023/07/16 06:10:38;;;;;;;13.05;7.35;;;;;;;;;;5110344;28;20273;-65
2023/07/16 06:13:04;;;;;;;17.27;7.68;;;;;;;;;;5098160;28;20477;-65
2023/07/16 06:15:29;;;;;;;13.10;7.38;;;;;;;;;;5109905;28;20023;-64
2023/07/16 06:17:54;;;;;;;18.50;7.05;;;;;;;;;;5109774;28;20127;-65
2023/07/16 06:20:19;;;;;;;16.00;7.55;;;;;;;;;;5105998;28;20028;-66
2023/07/16 06:22:44;;;;;;;11.93;7.17;;;;;;;;;;5109595;28;20023;-65
2023/07/16 06:25:10;;;;;;;14.37;6.97;;;;;;;;;;5107717;28;20301;-66
2023/07/16 06:27:36;;;;;;;16.23;7.72;;;;;;;;;;5104240;28;20744;-66
2023/07/16 06:30:01;;;;;;;16.35;7.47;;;;;;;;;;5102322;28;20028;-64
2023/07/16 06:32:26;;;;;;;11.95;8.20;;;;;;;;;;5097768;28;20120;-65
2023/07/16 06:34:51;;;;;;;15.18;7.53;;;;;;;;;;5108949;28;20080;-66
2023/07/16 06:37:17;;;;;;;24.80;7.90;;;;;;;;;;5097245;28;20471;-66
2023/07/16 06:39:42;;;;;;;12.52;6.90;;;;;;;;;;5101839;28;20868;-66
2023/07/16 06:42:07;;;;;;;13.83;8.30;;;;;;;;;;5097686;28;20066;-67
2023/07/16 06:44:32;;;;;;;19.05;8.73;;;;;;;;;;5090127;28;20270;-66
2023/07/16 06:46:58;;;;;;;19.77;7.60;;;;;;;;;;5095535;28;20034;-67
2023/07/16 06:49:23;;;;;;;13.02;7.78;;;;;;;;;;5110646;28;20350;-65
2023/07/16 06:51:48;;;;;;;18.05;8.27;;;;;;;;;;5097550;28;20028;-64
2023/07/16 06:54:14;;;;;;;14.23;7.30;;;;;;;;;;5110579;28;20026;-67
2023/07/16 06:56:39;;;;;;;14.10;7.17;;;;;;;;;;5109902;28;20164;-67
2023/07/16 06:59:04;;;;;;;14.50;8.00;;;;;;;;;;5111474;28;20304;-67
2023/07/16 07:01:30;;;;;;;16.17;7.57;;;;;;;;;;5114339;28;20034;-66
2023/07/16 07:03:55;;;;;;;14.35;7.75;;;;;;;;;;5100688;28;20016;-65
2023/07/16 07:06:21;;;;;;;12.48;6.75;;;;;;;;;;5100502;28;20028;-66
2023/07/16 07:08:46;;;;;;;14.10;7.60;;;;;;;;;;5113623;28;20081;-67
2023/07/16 07:11:11;;;;;;;11.73;7.10;;;;;;;;;;5113904;28;20020;-65
2023/07/16 07:13:37;;;;;;;16.80;8.77;;;;;;;;;;5113260;28;20111;-66
2023/07/16 07:16:02;;;;;;;20.92;8.25;;;;;;;;;;5097758;28;20317;-66
2023/07/16 07:18:28;;;;;;;16.88;8.45;;;;;;;;;;5105019;28;20020;-65
2023/07/16 07:20:53;;;;;;;17.53;7.83;;;;;;;;;;5109324;28;20028;-66
2023/07/16 07:23:18;;;;;;;10.07;6.53;;;;;;;;;;5102519;28;20280;-65
2023/07/16 07:25:48;;;;;;;13.77;8.00;;;;;;;;;;5108749;28;20107;-66
2023/07/16 07:28:14;;;;;;;16.75;7.00;;;;;;;;;;5111221;28;20051;-65
2023/07/16 07:30:39;;;;;;;12.40;7.17;;;;;;;;;;5109300;28;20059;-66
2023/07/16 07:33:04;;;;;;;12.33;7.57;;;;;;;;;;5108162;28;20273;-66
2023/07/16 07:35:29;;;;;;;11.13;7.63;;;;;;;;;;5106542;28;20292;-65
2023/07/16 07:37:55;;;;;;;19.17;7.65;;;;;;;;;;5101560;28;20031;-66
2023/07/16 07:40:20;;;;;;;12.63;7.00;;;;;;;;;;5107488;28;20023;-65
2023/07/16 07:42:45;;;;;;;15.18;8.68;;;;;;;;;;5107971;28;20047;-66
2023/07/16 07:45:10;;;;;;;13.63;7.63;;;;;;;;;;5113093;28;20031;-65
2023/07/16 07:47:36;;;;;;;15.67;7.83;;;;;;;;;;5109763;28;20356;-64
2023/07/16 07:50:01;;;;;;;21.23;8.13;;;;;;;;;;5100383;28;20280;-65
2023/07/16 07:52:27;;;;;;;10.55;6.72;;;;;;;;;;5107624;28;20763;-65
2023/07/16 07:54:52;;;;;;;23.77;6.80;;;;;;;;;;5106710;28;20026;-66
2023/07/16 07:57:17;;;;;;;16.73;7.32;;;;;;;;;;5110624;28;20023;-66
2023/07/16 07:59:43;;;;;;;12.20;6.85;;;;;;;;;;5106115;28;20427;-65
2023/07/16 08:02:08;;;;;;;11.57;7.43;;;;;;;;;;5094020;28;20023;-66
2023/07/16 08:04:33;;;;;;;23.90;6.60;;;;;;;;;;5088646;28;20039;-66
2023/07/16 08:06:58;;;;;;;9.98;6.20;;;;;;;;;;5105883;28;20351;-67
2023/07/16 08:09:25;;;;;;;13.05;6.70;;;;;;;;;;5106094;28;20043;-66
2023/07/16 08:11:50;;;;;;;12.18;6.70;;;;;;;;;;5101036;28;20063;-67
2023/07/16 08:14:16;;;;;;;9.82;6.53;;;;;;;;;;5092220;28;20059;-67
2023/07/16 08:16:43;;;;;;;12.40;5.97;;;;;;;;;;5105815;28;20028;-64
2023/07/16 08:19:09;;;;;;;9.82;6.25;;;;;;;;;;5103856;28;20339;-66
2023/07/16 08:21:35;;;;;;;16.85;7.28;;;;;;;;;;5076134;28;20039;-66
2023/07/16 08:24:01;;;;;;;13.13;6.25;;;;;;;;;;5098240;28;20027;-67
2023/07/16 08:26:26;;;;;;;12.73;6.78;;;;;;;;;;5102471;28;20413;-66
2023/07/16 08:28:52;;;;;;;9.40;5.67;;;;;;;;;;5110706;28;20078;-65
2023/07/16 08:31:17;;;;;;;11.88;6.40;;;;;;;;;;5094233;28;20342;-67
2023/07/16 08:33:43;;;;;;;10.48;5.75;;;;;;;;;;5108628;28;20124;-66
2023/07/16 08:36:09;;;;;;;15.73;6.83;;;;;;;;;;5093277;28;20024;-67
2023/07/16 08:38:34;;;;;;;11.55;6.32;;;;;;;;;;5099962;28;20289;-66
2023/07/16 08:40:59;;;;;;;11.02;6.13;;;;;;;;;;5102328;28;20031;-67
2023/07/16 08:43:25;;;;;;;10.48;6.05;;;;;;;;;;5105987;28;20490;-67
2023/07/16 08:45:50;;;;;;;12.30;5.72;;;;;;;;;;5110506;28;20027;-68
2023/07/16 08:48:18;;;;;;;13.10;5.80;;;;;;;;;;5108486;28;20016;-66
2023/07/16 08:50:46;;;;;;;13.15;6.10;;;;;;;;;;5100807;28;20023;-64
2023/07/16 08:53:11;;;;;;;11.02;5.65;;;;;;;;;;5111747;28;20509;-66
2023/07/16 08:55:38;;;;;;;11.40;5.37;;;;;;;;;;5099570;28;20032;-66
2023/07/16 08:58:04;;;;;;;8.77;5.60;;;;;;;;;;5101083;28;20345;-66
2023/07/16 09:00:29;;;;;;;11.10;5.82;;;;;;;;;;5098311;28;20490;-66
2023/07/16 09:02:55;;;;;;;11.02;5.88;;;;;;;;;;5109475;28;20028;-64
2023/07/16 09:05:21;;;;;;;7.43;5.15;;;;;;;;;;5102003;28;20080;-65
2023/07/16 09:07:46;;;;;;;15.30;6.07;;;;;;;;;;5108528;28;20074;-65
2023/07/16 09:10:11;;;;;;;14.82;5.88;;;;;;;;;;5109507;28;20027;-65
2023/07/16 09:12:41;;;;;;;11.68;6.25;;;;;;;;;;5110524;28;20427;-67
2023/07/16 09:15:07;;;;;;;13.48;5.57;;;;;;;;;;5104178;28;20019;-65
2023/07/16 09:17:33;;;;;;;11.70;5.72;;;;;;;;;;5105615;28;20110;-67
2023/07/16 09:20:02;;;;;;;15.30;6.13;;;;;;;;;;5098507;28;20110;-65
2023/07/16 09:22:27;;;;;;;11.30;5.80;;;;;;;;;;5100515;28;20474;-66
2023/07/16 09:24:52;;;;;;;12.85;6.63;;;;;;;;;;5107926;28;20020;-66
2023/07/16 09:27:18;;;;;;;11.82;5.63;;;;;;;;;;5099029;28;20026;-64
2023/07/16 09:29:43;;;;;;;8.80;5.47;;;;;;;;;;5094800;28;20028;-65
2023/07/16 09:32:09;;;;;;;11.53;4.80;;;;;;;;;;5097827;28;20386;-65
2023/07/16 09:34:34;;;;;;;9.07;5.35;;;;;;;;;;5101909;28;20262;-63
2023/07/16 09:37:00;;;;;;;11.68;4.95;;;;;;;;;;5098275;28;20888;-66
2023/07/16 09:39:26;;;;;;;10.18;4.95;;;;;;;;;;5092692;28;20028;-65
2023/07/16 09:41:51;;;;;;;10.48;4.47;;;;;;;;;;5103241;28;20035;-66
2023/07/16 09:44:17;;;;;;;9.25;4.93;;;;;;;;;;5094082;28;20023;-64
2023/07/16 09:46:43;;;;;;;7.07;4.20;;;;;;;;;;5093436;28;20073;-65
2023/07/16 09:49:08;;;;;;;9.60;4.68;;;;;;;;;;5095743;28;20031;-66
2023/07/16 09:51:35;;;;;;;7.45;4.20;;;;;;;;;;5096028;28;20024;-66
2023/07/16 09:54:01;;;;;;;9.23;4.53;;;;;;;;;;5086252;28;20399;-65
2023/07/16 09:56:30;;;;;;;12.27;3.92;;;;;;;;;;5110828;28;20024;-64
2023/07/16 09:58:56;;;;;;;6.35;3.35;;;;;;;;;;5098564;28;20497;-63
2023/07/16 10:01:22;;;;;;;7.40;3.55;;;;;;;;;;5108031;28;20019;-65
2023/07/16 10:03:52;;;;;;;4.85;3.03;;;;;;;;;;5106662;28;20043;-67
2023/07/16 10:06:18;;;;;;;6.63;3.50;;;;;;;;;;5103927;28;20022;-67
2023/07/16 10:08:48;;;;;;;6.68;3.90;;;;;;;;;;5108619;28;20448;-66
2023/07/16 10:11:17;;;;;;;5.93;3.45;;;;;;;;;;5096901;28;20103;-68
2023/07/16 10:13:43;;;;;;;6.28;3.47;;;;;;;;;;5095244;28;20016;-67
2023/07/16 10:16:19;;;;;;;7.95;4.03;;;;;;;;;;5102838;28;20106;-67
2023/07/16 10:18:50;;;;;;;6.15;3.50;;;;;;;;;;5098814;28;20155;-67
2023/07/16 10:21:22;;;;;;;6.30;2.80;;;;;;;;;;5101206;28;20031;-67
2023/07/16 10:23:47;;;;;;;10.50;3.40;;;;;;;;;;5094134;28;20375;-66
2023/07/16 10:26:13;;;;;;;5.90;3.00;;;;;;;;;;5094162;28;20020;-68
2023/07/16 10:28:39;;;;;;;9.77;3.53;;;;;;;;;;5097406;28;20368;-68
2023/07/16 10:31:07;;;;;;;4.80;2.90;;;;;;;;;;5099529;28;20150;-68
2023/07/16 10:33:32;;;;;;;5.25;3.05;;;;;;;;;;5092241;28;20024;-68
2023/07/16 10:36:01;;;;;;;4.93;3.07;;;;;;;;;;5098091;28;20081;-68
2023/07/16 10:38:26;;;;;;;5.85;3.13;;;;;;;;;;5090669;28;20290;-68
2023/07/16 10:40:51;;;;;;;8.80;3.38;;;;;;;;;;5081929;28;20036;-65
2023/07/16 10:43:16;;;;;;;7.53;3.40;;;;;;;;;;5104652;28;20451;-65
2023/07/16 10:45:42;;;;;;;8.40;3.27;;;;;;;;;;5100869;28;20356;-66
2023/07/16 10:48:07;;;;;;;4.57;2.70;;;;;;;;;;5107034;28;20292;-75
2023/07/16 10:50:34;;;;;;;7.30;2.80;;;;;;;;;;5101452;28;20270;-66
2023/07/16 10:52:59;;;;;;;5.85;2.88;;;;;;;;;;5102329;28;20024;-65
2023/07/16 10:55:26;;;;;;;7.15;3.58;;;;;;;;;;5102717;28;20529;-67
2023/07/16 10:57:52;;;;;;;12.30;3.55;;;;;;;;;;5103146;28;20027;-67
2023/07/16 11:00:18;;;;;;;11.35;4.15;;;;;;;;;;5103674;28;20562;-66
2023/07/16 11:02:43;;;;;;;4.85;2.95;;;;;;;;;;5103151;28;20051;-67
2023/07/16 11:05:13;;;;;;;5.53;3.08;;;;;;;;;;5098977;28;20119;-67
2023/07/16 11:07:42;;;;;;;8.38;3.13;;;;;;;;;;5105584;28;20074;-67
2023/07/16 11:10:07;;;;;;;4.78;3.17;;;;;;;;;;5107889;28;20024;-65
2023/07/16 11:12:33;;;;;;;8.20;3.42;;;;;;;;;;5103883;28;20094;-67
2023/07/16 11:14:58;;;;;;;9.80;3.90;;;;;;;;;;5106384;28;20047;-67
2023/07/16 11:17:24;;;;;;;7.10;3.43;;;;;;;;;;5106736;28;20276;-67
2023/07/16 11:19:50;;;;;;;8.02;3.70;;;;;;;;;;5107240;28;20282;-65
2023/07/16 11:22:15;;;;;;;12.48;3.67;;;;;;;;;;5100130;28;20020;-64
2023/07/16 11:24:41;;;;;;;4.75;2.90;;;;;;;;;;5093792;28;20030;-67
2023/07/16 11:27:32;;;;;;;6.60;3.03;;;;;;;;;;5105594;28;20020;-66
2023/07/16 11:29:58;;;;;;;9.88;3.90;;;;;;;;;;5089116;28;20625;-67
2023/07/16 11:32:34;;;;;;;14.23;3.67;;;;;;;;;;5104204;28;20115;-67
2023/07/16 11:35:00;;;;;;;7.55;3.63;;;;;;;;;;5101786;28;20497;-67
2023/07/16 11:37:26;;;;;;;5.65;2.72;;;;;;;;;;5096487;28;20043;-65
2023/07/16 11:39:54;;;;;;;10.13;4.13;;;;;;;;;;5109877;28;20056;-64
2023/07/16 11:42:38;;;;;;;7.88;4.18;;;;;;;;;;5099015;28;20020;-66
2023/07/16 11:45:04;;;;;;;6.22;3.38;;;;;;;;;;5096967;28;20385;-67
2023/07/16 11:47:30;;;;;;;10.18;3.08;;;;;;;;;;5113464;28;20023;-64
2023/07/16 11:49:55;;;;;;;6.22;3.03;;;;;;;;;;5108173;28;20020;-67
2023/07/16 11:52:22;;;;;;;6.28;3.40;;;;;;;;;;5101083;28;20015;-66
2023/07/16 11:54:48;;;;;;;5.45;2.95;;;;;;;;;;5096155;28;20027;-66
2023/07/16 11:57:13;;;;;;;5.57;3.58;;;;;;;;;;5109940;28;20091;-66
2023/07/16 11:59:38;;;;;;;6.03;3.58;;;;;;;;;;5096561;28;20036;-65
2023/07/16 12:02:04;;;;;;;6.43;3.23;;;;;;;;;;5103296;28;20541;-65
2023/07/16 12:04:29;;;;;;;7.15;3.15;;;;;;;;;;5102088;28;20696;-66
2023/07/16 12:06:54;;;;;;;6.18;3.50;;;;;;;;;;5106903;28;20064;-65
2023/07/16 12:09:20;;;;;;;7.95;3.90;;;;;;;;;;5109802;28;20382;-63
2023/07/16 12:11:45;;;;;;;6.27;3.20;;;;;;;;;;5106460;28;20500;-65
2023/07/16 12:14:12;;;;;;;7.20;3.72;;;;;;;;;;5112366;28;20265;-65
2023/07/16 12:16:37;;;;;;;8.85;3.83;;;;;;;;;;5111243;28;20024;-64
2023/07/16 12:19:03;;;;;;;5.60;3.25;;;;;;;;;;5112565;28;20032;-66
2023/07/16 12:21:28;;;;;;;7.20;3.33;;;;;;;;;;5112935;28;20382;-64
2023/07/16 12:23:53;;;;;;;6.72;3.25;;;;;;;;;;5112417;28;20279;-65
2023/07/16 12:26:18;;;;;;;14.50;3.60;;;;;;;;;;5112627;28;20020;-66
2023/07/16 12:28:44;;;;;;;10.07;3.28;;;;;;;;;;5111924;28;20027;-66
2023/07/16 12:31:09;;;;;;;9.27;3.07;;;;;;;;;;5103636;28;20038;-65
2023/07/16 12:33:34;;;;;;;7.67;3.23;;;;;;;;;;5105822;28;20312;-64
2023/07/16 12:35:59;;;;;;;6.00;2.90;;;;;;;;;;5093342;28;20323;-64
2023/07/16 12:38:25;;;;;;;7.63;3.70;;;;;;;;;;5092634;28;20309;-66
2023/07/16 12:40:50;;;;;;;12.30;3.35;;;;;;;;;;5109629;28;20277;-66
2023/07/16 12:43:15;;;;;;;17.00;3.38;;;;;;;;;;5099725;28;20015;-64
2023/07/16 12:45:41;;;;;;;7.73;3.27;;;;;;;;;;5104348;28;20028;-64
2023/07/16 12:48:06;;;;;;;7.53;3.43;;;;;;;;;;5096237;28;20669;-64
2023/07/16 12:50:31;;;;;;;4.73;2.93;;;;;;;;;;5092797;28;20286;-66
2023/07/16 12:52:56;;;;;;;5.67;3.03;;;;;;;;;;5097012;28;20261;-65
2023/07/16 12:55:23;;;;;;;5.63;3.20;;;;;;;;;;5102840;28;20263;-66
2023/07/16 12:57:48;;;;;;;8.07;3.28;;;;;;;;;;5107087;28;20300;-66
2023/07/16 13:00:13;;;;;;;5.20;3.23;;;;;;;;;;5088882;28;20509;-66
2023/07/16 13:02:38;;;;;;;7.47;3.00;;;;;;;;;;5105877;28;20276;-66
2023/07/16 13:05:04;;;;;;;7.03;3.03;;;;;;;;;;5102700;28;20352;-66
2023/07/16 13:07:30;;;;;;;6.25;3.33;;;;;;;;;;5111817;28;20767;-66
2023/07/16 13:09:55;;;;;;;8.05;3.58;;;;;;;;;;5100551;28;20032;-66
2023/07/16 13:12:20;;;;;;;11.50;3.40;;;;;;;;;;5090043;28;20035;-65
2023/07/16 13:14:46;;;;;;;7.83;3.47;;;;;;;;;;5100123;28;20289;-66
2023/07/16 13:17:11;;;;;;;6.20;3.92;;;;;;;;;;5087720;28;20279;-65
2023/07/16 13:19:36;;;;;;;9.93;3.43;;;;;;;;;;5093386;28;20031;-65
2023/07/16 13:22:01;;;;;;;5.10;3.17;;;;;;;;;;5101425;28;20282;-65
2023/07/16 13:24:27;;;;;;;8.00;3.40;;;;;;;;;;5111923;28;20265;-66
2023/07/16 13:26:52;;;;;;;8.43;3.90;;;;;;;;;;5102996;28;20274;-65
2023/07/16 13:29:17;;;;;;;8.40;3.47;;;;;;;;;;5111303;28;20386;-65
2023/07/16 13:31:43;;;;;;;9.70;3.87;;;;;;;;;;5103185;28;20050;-67
2023/07/16 13:34:08;;;;;;;7.10;3.37;;;;;;;;;;5111106;28;20301;-67
2023/07/16 13:36:33;;;;;;;7.50;4.10;;;;;;;;;;5107508;28;20277;-64
2023/07/16 13:38:58;;;;;;;8.10;4.40;;;;;;;;;;5103104;28;20324;-64
2023/07/16 13:41:23;;;;;;;4.63;3.23;;;;;;;;;;5103153;28;20835;-65
2023/07/16 13:43:49;;;;;;;7.37;3.90;;;;;;;;;;5099798;28;20370;-68
2023/07/16 13:46:14;;;;;;;6.53;3.30;;;;;;;;;;5108726;28;20277;-67
2023/07/16 13:48:39;;;;;;;9.70;3.80;;;;;;;;;;5110836;28;20089;-66
2023/07/16 13:51:05;;;;;;;8.73;3.70;;;;;;;;;;5100781;28;20281;-68
2023/07/16 13:53:30;;;;;;;6.88;3.80;;;;;;;;;;5103963;28;20757;-68
2023/07/16 13:55:55;;;;;;;9.70;4.20;;;;;;;;;;5103300;28;20028;-67
2023/07/16 13:58:20;;;;;;;6.20;3.75;;;;;;;;;;5104306;28;20780;-65
2023/07/16 14:00:46;;;;;;;8.77;4.00;;;;;;;;;;5110886;28;20035;-66
2023/07/16 14:03:11;;;;;;;7.40;3.07;;;;;;;;;;5104949;28;21759;-67
2023/07/16 14:05:38;;;;;;;6.00;3.63;;;;;;;;;;5104799;28;20309;-65
2023/07/16 14:08:04;;;;;;;7.70;3.88;;;;;;;;;;5101163;28;20274;-67
2023/07/16 14:10:29;;;;;;;6.40;3.42;;;;;;;;;;5106881;28;20065;-68
2023/07/16 14:12:55;;;;;;;10.07;4.00;;;;;;;;;;5100032;28;20478;-67
2023/07/16 14:15:20;;;;;;;9.27;4.00;;;;;;;;;;5104626;28;20327;-68
2023/07/16 14:17:45;;;;;;;9.38;4.18;;;;;;;;;;5097086;28;20654;-65
2023/07/16 14:20:11;;;;;;;6.53;4.07;;;;;;;;;;5109680;28;20039;-65
2023/07/16 14:22:36;;;;;;;6.13;3.75;;;;;;;;;;5104593;28;20274;-64
2023/07/16 14:25:02;;;;;;;8.27;4.13;;;;;;;;;;5105718;28;20024;-66
2023/07/16 14:27:27;;;;;;;7.00;3.95;;;;;;;;;;5102211;28;20315;-65